createdAt,value
2023-06-19T00:01:11.124Z,22.10
2023-06-19T00:03:38.334Z,22.06
2023-06-19T00:06:07.076Z,22.03
2023-06-19T00:08:34.425Z,21.95
2023-06-19T00:11:01.508Z,21.85
2023-06-19T00:13:28.662Z,21.80
2023-06-19T00:15:56.586Z,21.76
2023-06-19T00:18:23.947Z,21.77
2023-06-19T00:20:51.770Z,21.76
2023-06-19T00:23:18.770Z,21.69
2023-06-19T00:25:45.972Z,21.69
2023-06-19T00:28:15.177Z,21.74
2023-06-19T00:30:42.873Z,21.67
2023-06-19T00:33:10.370Z,21.56
2023-06-19T00:35:37.905Z,21.47
2023-06-19T00:38:06.873Z,21.40
2023-06-19T00:40:35.274Z,21.30
2023-06-19T00:43:03.182Z,21.38
2023-06-19T00:45:30.540Z,21.38
2023-06-19T00:47:59.402Z,21.28
2023-06-19T00:50:27.591Z,21.17
2023-06-19T00:52:55.181Z,21.10
2023-06-19T00:55:22.703Z,21.03
2023-06-19T00:57:51.994Z,21.00
2023-06-19T01:00:19.348Z,20.98
2023-06-19T01:02:48.210Z,20.99
2023-06-19T01:05:16.483Z,21.08
2023-06-19T01:08:14.567Z,21.15
2023-06-19T01:10:56.746Z,21.15
2023-06-19T01:13:36.028Z,21.14
2023-06-19T01:16:04.969Z,21.14
2023-06-19T01:18:33.965Z,21.16
2023-06-19T01:21:16.632Z,21.18
2023-06-19T01:23:44.319Z,21.17
2023-06-19T01:26:12.937Z,21.16
2023-06-19T01:28:45.145Z,21.19
2023-06-19T01:31:46.955Z,21.17
2023-06-19T01:34:18.671Z,21.17
2023-06-19T01:36:48.091Z,21.17
2023-06-19T01:39:17.333Z,21.16
2023-06-19T01:41:47.440Z,21.14
2023-06-19T01:44:14.858Z,21.14
2023-06-19T01:46:42.436Z,21.15
2023-06-19T01:49:10.928Z,21.16
2023-06-19T01:51:38.095Z,21.16
2023-06-19T01:54:05.658Z,21.14
2023-06-19T01:56:32.869Z,21.12
2023-06-19T01:59:00.976Z,21.10
2023-06-19T02:01:29.230Z,21.08
2023-06-19T02:03:56.273Z,21.01
2023-06-19T02:06:23.461Z,21.00
2023-06-19T02:08:50.823Z,20.97
2023-06-19T02:11:17.930Z,20.94
2023-06-19T02:13:44.976Z,20.94
2023-06-19T02:16:13.711Z,20.94
2023-06-19T02:18:40.798Z,20.93
2023-06-19T02:21:08.086Z,20.92
2023-06-19T02:23:35.745Z,20.92
2023-06-19T02:26:02.855Z,20.92
2023-06-19T02:28:30.263Z,20.90
2023-06-19T02:30:57.296Z,20.89
2023-06-19T02:33:24.488Z,20.89
2023-06-19T02:35:53.645Z,20.87
2023-06-19T02:38:22.574Z,20.85
2023-06-19T02:40:49.606Z,20.84
2023-06-19T02:43:16.908Z,20.83
2023-06-19T02:45:44.139Z,20.82
2023-06-19T02:48:12.176Z,20.83
2023-06-19T02:50:39.498Z,20.82
2023-06-19T02:53:06.744Z,20.81
2023-06-19T02:55:33.846Z,20.81
2023-06-19T02:58:01.307Z,20.77
2023-06-19T03:00:30.020Z,20.75
2023-06-19T03:02:58.474Z,20.73
2023-06-19T03:05:28.462Z,20.71
2023-06-19T03:07:56.555Z,20.70
2023-06-19T03:10:24.027Z,20.64
2023-06-19T03:12:51.375Z,20.54
2023-06-19T03:15:18.589Z,20.52
2023-06-19T03:17:49.531Z,20.51
2023-06-19T03:20:17.977Z,20.54
2023-06-19T03:22:52.853Z,20.63
2023-06-19T03:25:21.206Z,20.65
2023-06-19T03:27:49.275Z,20.68
2023-06-19T03:30:19.809Z,20.70
2023-06-19T03:32:50.615Z,20.75
2023-06-19T03:35:36.481Z,20.80
2023-06-19T03:38:04.778Z,20.80
2023-06-19T03:40:32.468Z,20.80
2023-06-19T03:43:05.981Z,20.79
2023-06-19T03:45:33.732Z,20.76
2023-06-19T03:48:00.850Z,20.77
2023-06-19T03:50:28.062Z,20.77
2023-06-19T03:52:55.149Z,20.73
2023-06-19T03:55:22.392Z,20.74
2023-06-19T03:57:50.765Z,20.78
2023-06-19T04:00:19.489Z,20.80
2023-06-19T04:02:50.249Z,20.85
2023-06-19T04:05:17.758Z,20.90
2023-06-19T04:07:45.276Z,20.94
2023-06-19T04:10:15.217Z,20.98
2023-06-19T04:12:42.338Z,21.02
2023-06-19T04:15:10.674Z,21.07
2023-06-19T04:17:37.956Z,21.11
2023-06-19T04:20:12.892Z,21.15
2023-06-19T04:22:41.614Z,21.17
2023-06-19T04:25:11.266Z,21.21
2023-06-19T04:27:38.476Z,21.24
2023-06-19T04:30:07.810Z,21.26
2023-06-19T04:32:36.479Z,21.31
2023-06-19T04:35:03.960Z,21.39
2023-06-19T04:37:31.199Z,21.45
2023-06-19T04:39:58.896Z,21.52
2023-06-19T04:42:26.133Z,21.59
2023-06-19T04:44:53.503Z,21.70
2023-06-19T04:47:23.384Z,21.80
2023-06-19T04:49:50.493Z,21.78
2023-06-19T04:52:17.585Z,21.74
2023-06-19T04:54:44.858Z,21.82
2023-06-19T04:57:11.976Z,21.83
2023-06-19T04:59:39.130Z,21.83
2023-06-19T05:02:07.991Z,21.80
2023-06-19T05:04:35.294Z,21.74
2023-06-19T05:07:02.477Z,21.72
2023-06-19T05:09:30.167Z,21.66
2023-06-19T05:11:58.628Z,21.66
2023-06-19T05:14:25.743Z,21.86
2023-06-19T05:16:52.947Z,22.00
2023-06-19T05:19:20.120Z,22.02
2023-06-19T05:21:47.365Z,22.05
2023-06-19T05:24:15.201Z,22.02
2023-06-19T05:26:42.374Z,22.11
2023-06-19T05:29:09.997Z,22.12
2023-06-19T05:31:37.072Z,22.15
2023-06-19T05:34:04.664Z,22.26
2023-06-19T05:36:31.698Z,22.40
2023-06-19T05:38:58.824Z,22.46
2023-06-19T05:41:25.920Z,22.46
2023-06-19T05:43:53.052Z,22.57
2023-06-19T05:46:20.448Z,22.67
2023-06-19T05:48:48.398Z,22.81
2023-06-19T05:51:15.985Z,23.04
2023-06-19T05:53:43.087Z,23.97
2023-06-19T05:56:10.386Z,24.99
2023-06-19T05:58:37.484Z,26.47
2023-06-19T06:01:04.752Z,27.52
2023-06-19T06:03:32.094Z,28.10
2023-06-19T06:06:04.489Z,28.88
2023-06-19T06:08:31.839Z,29.40
2023-06-19T06:10:59.297Z,29.58
2023-06-19T06:13:26.538Z,29.81
2023-06-19T06:15:53.703Z,30.04
2023-06-19T06:18:21.078Z,30.24
2023-06-19T06:20:48.264Z,30.34
2023-06-19T06:23:15.672Z,30.37
2023-06-19T06:25:42.752Z,30.31
2023-06-19T06:28:09.943Z,30.06
2023-06-19T06:30:36.965Z,30.09
2023-06-19T06:33:04.879Z,30.04
2023-06-19T06:35:32.152Z,30.10
2023-06-19T06:37:59.477Z,30.11
2023-06-19T06:40:26.830Z,30.44
2023-06-19T06:42:55.132Z,30.21
2023-06-19T06:45:25.007Z,30.28
2023-06-19T06:47:52.847Z,30.13
2023-06-19T06:50:19.914Z,29.97
2023-06-19T06:52:47.073Z,29.90
2023-06-19T06:55:14.178Z,30.16
2023-06-19T06:57:41.324Z,30.20
2023-06-19T07:00:12.352Z,30.25
2023-06-19T07:02:41.515Z,29.86
2023-06-19T07:05:10.136Z,30.00
2023-06-19T07:07:37.817Z,29.92
2023-06-19T07:10:05.246Z,29.48
2023-06-19T07:12:32.510Z,29.21
2023-06-19T07:14:59.516Z,29.35
2023-06-19T07:17:26.580Z,29.50
2023-06-19T07:19:53.941Z,29.54
2023-06-19T07:22:21.106Z,29.49
2023-06-19T07:24:48.362Z,29.41
2023-06-19T07:27:15.468Z,29.36
2023-06-19T07:29:42.664Z,29.29
2023-06-19T07:32:09.807Z,29.23
2023-06-19T07:34:37.120Z,29.21
2023-06-19T07:37:04.545Z,29.26
2023-06-19T07:39:32.308Z,29.13
2023-06-19T07:41:59.512Z,28.98
2023-06-19T07:44:26.514Z,28.85
2023-06-19T07:46:53.888Z,28.50
2023-06-19T07:49:20.962Z,28.22
2023-06-19T07:51:48.151Z,28.11
2023-06-19T07:54:15.258Z,28.17
2023-06-19T07:56:42.788Z,27.99
2023-06-19T07:59:09.843Z,27.97
2023-06-19T08:01:36.989Z,27.97
2023-06-19T08:04:04.043Z,27.88
2023-06-19T08:06:31.130Z,27.83
2023-06-19T08:08:58.319Z,27.95
2023-06-19T08:11:25.435Z,28.11
2023-06-19T08:13:52.547Z,28.09
2023-06-19T08:16:19.836Z,28.15
2023-06-19T08:18:47.215Z,28.20
2023-06-19T08:21:14.747Z,28.29
2023-06-19T08:23:44.873Z,28.50
2023-06-19T08:26:12.428Z,28.33
2023-06-19T08:28:39.616Z,28.57
2023-06-19T08:31:06.654Z,28.56
2023-06-19T08:33:36.519Z,28.47
2023-06-19T08:36:03.881Z,28.56
2023-06-19T08:38:31.225Z,28.48
2023-06-19T08:40:58.323Z,28.53
2023-06-19T08:43:25.521Z,28.50
2023-06-19T08:46:12.024Z,28.50
2023-06-19T08:48:40.268Z,28.48
2023-06-19T08:51:07.571Z,28.45
2023-06-19T08:53:36.688Z,28.28
2023-06-19T08:56:05.805Z,28.43
2023-06-19T08:58:33.021Z,28.31
2023-06-19T09:01:00.634Z,28.26
2023-06-19T09:03:27.848Z,28.12
2023-06-19T09:05:55.230Z,28.04
2023-06-19T09:08:24.153Z,28.00
2023-06-19T09:11:01.861Z,28.08
2023-06-19T09:13:32.327Z,28.06
2023-06-19T09:16:09.099Z,28.04
2023-06-19T09:18:47.710Z,27.97
2023-06-19T09:21:26.027Z,27.67
2023-06-19T09:23:53.415Z,27.46
2023-06-19T09:26:27.521Z,27.10
2023-06-19T09:28:55.244Z,26.89
2023-06-19T09:31:34.198Z,26.77
2023-06-19T09:34:01.418Z,26.69
2023-06-19T09:36:29.493Z,26.55
2023-06-19T09:38:58.358Z,26.52
2023-06-19T09:41:26.685Z,26.61
2023-06-19T09:44:01.159Z,26.60
2023-06-19T09:46:34.295Z,26.75
2023-06-19T09:49:03.162Z,26.80
2023-06-19T09:51:38.399Z,26.82
2023-06-19T09:54:07.914Z,26.97
2023-06-19T09:56:35.532Z,27.05
2023-06-19T09:59:04.850Z,27.15
2023-06-19T10:01:33.637Z,27.20
2023-06-19T10:04:05.816Z,27.31
2023-06-19T10:06:33.765Z,27.27
2023-06-19T10:09:11.355Z,27.27
2023-06-19T10:11:52.747Z,27.23
2023-06-19T10:14:24.076Z,27.08
2023-06-19T10:16:52.990Z,26.83
2023-06-19T10:19:23.640Z,26.78
2023-06-19T10:21:55.684Z,26.67
2023-06-19T10:24:25.599Z,26.67
2023-06-19T10:27:03.664Z,26.66
2023-06-19T10:29:41.897Z,26.59
2023-06-19T10:32:12.427Z,26.73
2023-06-19T10:34:39.460Z,26.78
2023-06-19T10:37:06.696Z,26.64
2023-06-19T10:39:34.014Z,26.55
2023-06-19T10:42:01.115Z,26.70
2023-06-19T10:44:28.203Z,26.76
2023-06-19T10:46:55.470Z,26.79
2023-06-19T10:49:22.802Z,26.89
2023-06-19T10:51:50.102Z,27.00
2023-06-19T10:54:18.584Z,27.10
2023-06-19T10:56:45.728Z,27.14
2023-06-19T10:59:12.966Z,27.08
2023-06-19T11:01:46.338Z,27.16
2023-06-19T11:04:16.386Z,27.26
2023-06-19T11:06:48.721Z,27.39
2023-06-19T11:09:15.953Z,27.33
2023-06-19T11:11:48.145Z,27.24
2023-06-19T11:14:17.132Z,27.19
2023-06-19T11:16:47.487Z,27.18
2023-06-19T11:19:20.554Z,27.15
2023-06-19T11:21:50.232Z,26.97
2023-06-19T11:24:18.173Z,26.90
2023-06-19T11:26:51.034Z,26.84
2023-06-19T11:29:21.649Z,26.84
2023-06-19T11:31:49.999Z,27.05
2023-06-19T11:34:19.459Z,27.09
2023-06-19T11:36:48.309Z,27.13
2023-06-19T11:39:16.883Z,27.19
2023-06-19T11:41:47.347Z,27.17
2023-06-19T11:44:14.788Z,27.09
2023-06-19T11:46:44.120Z,27.11
2023-06-19T11:49:15.616Z,27.12
2023-06-19T11:51:42.951Z,26.94
2023-06-19T11:54:12.439Z,26.95
2023-06-19T11:56:40.958Z,27.15
2023-06-19T11:59:08.783Z,27.33
2023-06-19T12:01:37.034Z,27.17
2023-06-19T12:04:05.277Z,26.98
2023-06-19T12:06:32.659Z,26.99
2023-06-19T12:09:00.398Z,27.24
2023-06-19T12:11:27.495Z,27.15
2023-06-19T12:13:58.985Z,27.13
2023-06-19T12:16:26.674Z,27.05
2023-06-19T12:18:54.682Z,27.19
2023-06-19T12:21:33.784Z,27.30
2023-06-19T12:24:03.845Z,27.26
2023-06-19T12:26:31.217Z,27.30
2023-06-19T12:28:58.214Z,27.28
2023-06-19T12:31:26.318Z,27.45
2023-06-19T12:33:53.485Z,27.30
2023-06-19T12:36:20.814Z,26.94
2023-06-19T12:38:50.110Z,26.62
2023-06-19T12:41:18.383Z,26.81
2023-06-19T12:43:45.619Z,26.77
2023-06-19T12:46:13.099Z,26.70
2023-06-19T12:48:40.326Z,26.67
2023-06-19T12:51:07.590Z,26.52
2023-06-19T12:53:35.030Z,26.33
2023-06-19T12:56:05.983Z,26.45
2023-06-19T12:58:36.517Z,26.55
2023-06-19T13:01:03.719Z,26.51
2023-06-19T13:03:31.068Z,26.38
2023-06-19T13:05:58.578Z,26.12
2023-06-19T13:08:26.060Z,26.25
2023-06-19T13:10:53.238Z,26.19
2023-06-19T13:13:20.555Z,26.11
2023-06-19T13:15:47.767Z,26.11
2023-06-19T13:18:15.232Z,26.11
2023-06-19T13:20:42.295Z,26.11
2023-06-19T13:23:09.665Z,25.93
2023-06-19T13:25:36.714Z,25.91
2023-06-19T13:28:04.074Z,26.00
2023-06-19T13:30:31.184Z,26.03
2023-06-19T13:32:58.595Z,26.04
2023-06-19T13:35:26.599Z,26.07
2023-06-19T13:37:54.978Z,26.19
2023-06-19T13:40:22.692Z,26.15
2023-06-19T13:42:50.244Z,26.03
2023-06-19T13:45:17.531Z,26.01
2023-06-19T13:47:44.959Z,26.04
2023-06-19T13:50:15.909Z,26.03
2023-06-19T13:52:43.098Z,26.06
2023-06-19T13:55:10.389Z,26.05
2023-06-19T13:57:38.576Z,25.98
2023-06-19T14:00:09.623Z,25.93
2023-06-19T14:02:42.178Z,25.86
2023-06-19T14:05:10.759Z,25.72
2023-06-19T14:07:37.879Z,26.02
2023-06-19T14:10:06.350Z,26.17
2023-06-19T14:12:33.810Z,26.29
2023-06-19T14:15:00.943Z,26.34
2023-06-19T14:17:28.127Z,26.42
2023-06-19T14:19:57.246Z,26.62
2023-06-19T14:22:24.277Z,26.74
2023-06-19T14:24:51.779Z,26.80
2023-06-19T14:27:18.841Z,26.82
2023-06-19T14:29:46.317Z,26.83
2023-06-19T14:32:13.693Z,26.88
2023-06-19T14:34:40.703Z,27.01
2023-06-19T14:37:08.062Z,27.00
2023-06-19T14:39:35.256Z,27.03
2023-06-19T14:42:02.729Z,26.95
2023-06-19T14:44:29.774Z,26.90
2023-06-19T14:46:56.982Z,26.84
2023-06-19T14:49:24.162Z,26.80
2023-06-19T14:51:51.931Z,26.82
2023-06-19T14:54:21.222Z,26.93
2023-06-19T14:56:49.423Z,26.98
2023-06-19T14:59:16.930Z,26.80
2023-06-19T15:01:45.420Z,26.59
2023-06-19T15:04:12.901Z,26.43
2023-06-19T15:06:40.878Z,26.44
2023-06-19T15:09:08.084Z,26.43
2023-06-19T15:11:35.825Z,26.47
2023-06-19T15:14:02.988Z,26.40
2023-06-19T15:16:30.011Z,26.24
2023-06-19T15:18:57.182Z,26.25
2023-06-19T15:21:24.263Z,26.23
2023-06-19T15:23:55.034Z,26.10
2023-06-19T15:26:22.300Z,26.12
2023-06-19T15:28:49.678Z,26.19
2023-06-19T15:31:17.847Z,26.24
2023-06-19T15:33:44.869Z,26.40
2023-06-19T15:36:14.400Z,26.51
2023-06-19T15:38:41.497Z,26.50
2023-06-19T15:41:08.742Z,26.43
2023-06-19T15:43:35.828Z,26.20
2023-06-19T15:46:05.209Z,25.98
2023-06-19T15:48:32.353Z,26.03
2023-06-19T15:50:59.553Z,25.96
2023-06-19T15:53:26.723Z,25.94
2023-06-19T15:55:54.388Z,26.04
2023-06-19T15:58:21.472Z,25.93
2023-06-19T16:00:52.970Z,26.01
2023-06-19T16:03:23.185Z,26.01
2023-06-19T16:08:26.524Z,25.92
2023-06-19T16:10:53.775Z,25.93
2023-06-19T16:13:20.847Z,25.93
2023-06-19T16:15:47.887Z,25.91
2023-06-19T16:18:15.649Z,25.87
2023-06-19T16:20:42.840Z,25.88
2023-06-19T16:23:09.911Z,25.89
2023-06-19T16:25:36.996Z,25.79
2023-06-19T16:28:04.431Z,25.80
2023-06-19T16:30:31.605Z,25.72
2023-06-19T16:32:58.826Z,25.70
2023-06-19T16:35:26.084Z,25.70
2023-06-19T16:37:59.979Z,25.62
2023-06-19T16:40:27.664Z,25.59
2023-06-19T16:42:55.236Z,25.54
2023-06-19T16:45:25.020Z,25.48
2023-06-19T16:47:52.189Z,25.44
2023-06-19T16:50:19.285Z,25.42
2023-06-19T16:52:46.425Z,25.36
2023-06-19T16:55:13.488Z,25.32
2023-06-19T16:57:41.213Z,25.34
2023-06-19T17:00:11.653Z,25.39
2023-06-19T17:02:38.931Z,25.41
2023-06-19T17:05:06.698Z,25.39
2023-06-19T17:07:35.537Z,25.37
2023-06-19T17:10:03.835Z,25.22
2023-06-19T17:12:34.382Z,25.24
2023-06-19T17:15:01.794Z,25.23
2023-06-19T17:17:29.168Z,25.21
2023-06-19T17:19:56.371Z,25.17
2023-06-19T17:22:23.355Z,25.17
2023-06-19T17:24:50.673Z,25.16
2023-06-19T17:27:17.917Z,25.10
2023-06-19T17:29:45.065Z,25.02
2023-06-19T17:32:12.082Z,24.98
2023-06-19T17:34:39.182Z,24.98
2023-06-19T17:37:06.651Z,24.99
2023-06-19T17:39:33.648Z,24.98
2023-06-19T17:42:00.881Z,25.00
2023-06-19T17:44:30.681Z,25.00
2023-06-19T17:46:58.187Z,25.02
2023-06-19T17:49:25.204Z,25.06
2023-06-19T17:51:52.406Z,25.03
2023-06-19T17:54:19.637Z,25.01
2023-06-19T17:56:46.981Z,25.00
2023-06-19T17:59:14.802Z,24.83
2023-06-19T18:01:41.880Z,24.73
2023-06-19T18:04:09.688Z,24.62
2023-06-19T18:06:36.898Z,24.51
2023-06-19T18:09:06.660Z,24.52
2023-06-19T18:11:34.000Z,24.52
2023-06-19T18:14:01.311Z,24.51
2023-06-19T18:16:28.638Z,24.52
2023-06-19T18:18:56.063Z,24.49
2023-06-19T18:21:23.336Z,24.47
2023-06-19T18:23:50.786Z,24.46
2023-06-19T18:26:18.334Z,24.44
2023-06-19T18:28:45.565Z,24.42
2023-06-19T18:31:12.975Z,24.40
2023-06-19T18:33:40.127Z,24.35
2023-06-19T18:36:07.298Z,24.33
2023-06-19T18:38:34.429Z,24.32
2023-06-19T18:41:01.793Z,24.33
2023-06-19T18:43:28.918Z,24.31
2023-06-19T18:45:56.653Z,24.32
2023-06-19T18:48:23.758Z,24.28
2023-06-19T18:50:50.886Z,24.27
2023-06-19T18:53:17.987Z,24.27
2023-06-19T18:55:45.549Z,24.20
2023-06-19T18:58:13.312Z,24.18
2023-06-19T19:00:40.811Z,24.16
2023-06-19T19:03:08.990Z,24.13
2023-06-19T19:05:37.286Z,24.08
2023-06-19T19:08:04.582Z,24.07
2023-06-19T19:10:31.820Z,24.02
2023-06-19T19:12:59.194Z,24.06
2023-06-19T19:15:27.499Z,24.04
2023-06-19T19:17:54.872Z,24.02
2023-06-19T19:20:22.417Z,24.00
2023-06-19T19:22:49.808Z,23.96
2023-06-19T19:25:16.941Z,23.99
2023-06-19T19:27:44.258Z,24.01
2023-06-19T19:30:13.050Z,24.06
2023-06-19T19:32:40.268Z,24.14
2023-06-19T19:35:08.875Z,24.18
2023-06-19T19:37:36.001Z,24.22
2023-06-19T19:40:04.762Z,24.22
2023-06-19T19:42:31.902Z,24.23
2023-06-19T19:45:00.250Z,24.24
2023-06-19T19:47:27.350Z,24.26
2023-06-19T19:49:55.792Z,24.32
2023-06-19T19:52:25.424Z,24.32
2023-06-19T19:54:53.021Z,24.39
2023-06-19T19:57:20.118Z,24.48
2023-06-19T19:59:47.358Z,24.57
2023-06-19T20:02:14.533Z,24.64
2023-06-19T20:04:41.780Z,24.69
2023-06-19T20:07:08.976Z,24.71
2023-06-19T20:09:36.097Z,24.74
2023-06-19T20:12:20.069Z,24.76
2023-06-19T20:14:48.524Z,24.80
2023-06-19T20:17:15.992Z,24.81
2023-06-19T20:19:43.371Z,24.81
2023-06-19T20:22:10.580Z,24.82
2023-06-19T20:24:38.180Z,24.81
2023-06-19T20:27:08.066Z,24.81
2023-06-19T20:29:35.436Z,24.85
2023-06-19T20:32:02.607Z,24.87
2023-06-19T20:34:30.085Z,24.86
2023-06-19T20:36:57.915Z,24.86
2023-06-19T20:39:25.136Z,24.86
2023-06-19T20:41:52.377Z,24.88
2023-06-19T20:44:19.751Z,24.76
2023-06-19T20:46:47.056Z,24.56
2023-06-19T20:49:14.274Z,24.48
2023-06-19T20:51:41.487Z,24.34
2023-06-19T20:54:09.553Z,24.17
2023-06-19T20:56:36.779Z,24.02
2023-06-19T20:59:03.910Z,23.88
2023-06-19T21:01:31.109Z,23.79
2023-06-19T21:04:02.769Z,23.74
2023-06-19T21:06:34.334Z,23.73
2023-06-19T21:09:04.727Z,23.74
2023-06-19T21:11:32.506Z,23.82
2023-06-19T21:13:59.602Z,23.81
2023-06-19T21:16:28.243Z,23.74
2023-06-19T21:18:55.424Z,23.70
2023-06-19T21:21:22.638Z,23.65
2023-06-19T21:23:49.738Z,23.64
2023-06-19T21:26:17.361Z,23.64
2023-06-19T21:28:44.611Z,23.65
2023-06-19T21:31:11.692Z,23.68
2023-06-19T21:33:38.816Z,23.68
2023-06-19T21:36:06.375Z,23.71
2023-06-19T21:38:35.133Z,23.72
2023-06-19T21:41:05.303Z,23.73
2023-06-19T21:43:32.574Z,23.69
2023-06-19T21:45:59.771Z,23.63
2023-06-19T21:48:27.527Z,23.60
2023-06-19T21:50:55.317Z,23.62
2023-06-19T21:53:22.738Z,23.63
2023-06-19T21:55:49.827Z,23.61
2023-06-19T21:58:16.979Z,23.55
2023-06-19T22:00:44.090Z,23.50
2023-06-19T22:03:11.323Z,23.54
2023-06-19T22:05:38.485Z,23.57
2023-06-19T22:08:05.678Z,23.55
2023-06-19T22:10:33.496Z,23.52
2023-06-19T22:13:00.733Z,23.49
2023-06-19T22:15:27.908Z,23.45
2023-06-19T22:17:55.136Z,23.40
2023-06-19T22:20:24.404Z,23.36
2023-06-19T22:22:51.555Z,23.29
2023-06-19T22:25:18.738Z,23.26
2023-06-19T22:27:47.434Z,23.23
2023-06-19T22:30:16.360Z,23.22
2023-06-19T22:32:43.854Z,23.23
2023-06-19T22:35:10.996Z,23.27
2023-06-19T22:37:38.971Z,23.35
2023-06-19T22:40:08.685Z,23.37
2023-06-19T22:42:39.140Z,23.31
2023-06-19T22:45:10.514Z,23.30
2023-06-19T22:47:41.815Z,23.28
2023-06-19T22:50:10.318Z,23.28
2023-06-19T22:52:37.999Z,23.30
2023-06-19T22:55:05.706Z,23.20
2023-06-19T22:57:36.302Z,23.11
2023-06-19T23:00:13.389Z,23.09
2023-06-19T23:02:41.697Z,23.04
2023-06-19T23:05:10.354Z,23.01
2023-06-19T23:07:38.192Z,22.98
2023-06-19T23:10:05.995Z,22.93
2023-06-19T23:12:33.695Z,22.92
2023-06-19T23:15:01.317Z,22.91
2023-06-19T23:17:28.436Z,22.90
2023-06-19T23:19:59.454Z,22.88
2023-06-19T23:22:27.108Z,22.87
2023-06-19T23:24:54.395Z,22.87
2023-06-19T23:27:21.741Z,22.81
2023-06-19T23:29:49.030Z,22.81
2023-06-19T23:32:16.168Z,22.80
2023-06-19T23:34:43.458Z,22.77
2023-06-19T23:37:10.506Z,22.75
2023-06-19T23:39:37.645Z,22.69
2023-06-19T23:42:04.905Z,22.61
2023-06-19T23:44:32.034Z,22.56
2023-06-19T23:46:59.144Z,22.53
2023-06-19T23:49:26.473Z,22.51
2023-06-19T23:51:53.646Z,22.45
2023-06-19T23:54:22.350Z,22.41
2023-06-19T23:56:49.391Z,22.41
2023-06-19T23:59:16.683Z,22.40
